Ana Sayfa
METAR-TAF:

METAR-TAF

Havaalanları :

Stockholm-Arlanda Havalimanı

Stokholm-Arlanda, İsveç

Enlem: 59-39N, Boylam: 017-57E, yükseklik: 38 m

Güncel hava durumu gözlemi

Rapor saat 06:20 UTC de 20 dakika önce yapıldı.
Rüzgar batıdan 7 kt
Sıcaklık 10°C
Nem 87%
Basınç 1013 hPa
Görüş mesafesi 10 km veya daha fazla
1500 m altında bulut yok ve kümülonimbus yok

METAR: ESSA 210620Z 27007KT CAVOK 10/08 Q1013 NOSIG

Saat: 08:40 (06:40 UTC)

Tahmin

Rapor saat 05:30 UTC de 1 saat ve 10 dakika önce yapıldı.
Ayın 21'si saat 06 UTC'den ayın 22'si saat 06 UTC'ye kadar geçerli Tahmin
Rüzgar batıdan 6 kt
Görüş mesafesi 10 km veya daha fazla
1500 m altında bulut yok ve kümülonimbus yok
Olasılık 40%
ayın 22'si saat 01 UTC'den ayın 22'si saat 04 UTC'ye kadar
900 ft yükseklikte parçalı çok bulutlu

TAF: ESSA 210530Z 2106/2206 28006KT CAVOK PROB40 2201/2204 BKN009

4.000'den fazla havaalanı için hava durumu gözlemleri ve tahminleri (METAR ve TAF raporları).

Kullanılabilir istasyonlar harita üzerinde sarı ve kırmızı noktalarla gösterilir.

İstasyonun adını görmek için fareyi noktanın üzerinde gezdirin.

Sonrasında hava gözlem ve tahminlerini görmek için tıklayın.

Haritayı değiştirmek için: yaklaştırmak için siyah artı işaretli yeşil düğmeye ve uzaklaştırmak için de eksi işaretli düğmeye hızla tıklayın; bitişik haritalar için yeşil okları kullanın.


METAR-TAF: